createdAt,value
2023-04-12T00:01:18.768Z,8.31
2023-04-12T00:03:51.048Z,8.33
2023-04-12T00:06:18.557Z,8.34
2023-04-12T00:08:47.012Z,8.31
2023-04-12T00:11:14.335Z,8.31
2023-04-12T00:13:41.984Z,8.37
2023-04-12T00:16:10.212Z,8.34
2023-04-12T00:18:37.805Z,8.33
2023-04-12T00:21:05.570Z,8.30
2023-04-12T00:23:33.975Z,8.25
2023-04-12T00:26:01.290Z,8.39
2023-04-12T00:28:28.868Z,8.30
2023-04-12T00:30:56.154Z,8.30
2023-04-12T00:33:23.879Z,8.33
2023-04-12T00:35:51.225Z,8.37
2023-04-12T00:38:18.929Z,8.37
2023-04-12T00:40:46.397Z,8.30
2023-04-12T00:43:18.948Z,8.30
2023-04-12T00:45:47.920Z,8.18
2023-04-12T00:48:16.659Z,8.25
2023-04-12T00:50:47.703Z,8.23
2023-04-12T00:53:17.765Z,8.22
2023-04-12T00:55:46.455Z,8.21
2023-04-12T00:58:15.062Z,8.11
2023-04-12T01:00:50.348Z,8.32
2023-04-12T01:03:27.827Z,8.24
2023-04-12T01:06:38.633Z,8.21
2023-04-12T01:09:25.812Z,8.19
2023-04-12T01:12:02.097Z,8.19
2023-04-12T01:15:06.804Z,8.16
2023-04-12T01:17:44.185Z,8.21
2023-04-12T01:20:48.567Z,8.08
2023-04-12T01:23:56.729Z,8.04
2023-04-12T01:26:49.120Z,7.96
2023-04-12T01:29:21.270Z,8.10
2023-04-12T01:32:12.404Z,8.06
2023-04-12T01:34:42.578Z,8.09
2023-04-12T01:37:10.684Z,8.07
2023-04-12T01:39:38.865Z,8.14
2023-04-12T01:42:06.741Z,8.14
2023-04-12T01:44:33.996Z,8.11
2023-04-12T01:47:01.598Z,8.17
2023-04-12T01:49:54.167Z,8.06
2023-04-12T01:52:27.246Z,8.05
2023-04-12T01:54:59.354Z,8.11
2023-04-12T01:57:27.937Z,8.06
2023-04-12T01:59:59.094Z,8.05
2023-04-12T02:02:27.482Z,8.06
2023-04-12T02:04:56.604Z,8.10
2023-04-12T02:07:24.263Z,8.15
2023-04-12T02:09:51.589Z,8.06
2023-04-12T02:12:19.220Z,8.03
2023-04-12T02:14:47.198Z,7.98
2023-04-12T02:17:14.827Z,7.89
2023-04-12T02:19:42.078Z,7.90
2023-04-12T02:22:09.827Z,7.86
2023-04-12T02:24:37.222Z,7.93
2023-04-12T02:27:04.898Z,7.96
2023-04-12T02:29:32.167Z,7.78
2023-04-12T02:31:59.783Z,7.73
2023-04-12T02:34:27.209Z,7.69
2023-04-12T02:36:54.850Z,7.81
2023-04-12T02:39:22.394Z,7.82
2023-04-12T02:41:50.081Z,7.74
2023-04-12T02:44:17.274Z,7.80
2023-04-12T02:46:44.887Z,7.80
2023-04-12T02:49:12.092Z,7.77
2023-04-12T02:51:40.139Z,7.75
2023-04-12T02:54:07.435Z,7.78
2023-04-12T02:56:38.145Z,7.78
2023-04-12T02:59:06.920Z,7.74
2023-04-12T03:01:35.008Z,7.70
2023-04-12T03:04:02.568Z,7.82
2023-04-12T03:06:30.370Z,7.84
2023-04-12T03:08:58.270Z,7.91
2023-04-12T03:11:26.084Z,7.80
2023-04-12T03:13:53.538Z,7.86
2023-04-12T03:16:26.219Z,7.83
2023-04-12T03:18:53.617Z,7.84
2023-04-12T03:21:21.245Z,7.83
2023-04-12T03:23:48.613Z,7.87
2023-04-12T03:26:16.195Z,7.83
2023-04-12T03:28:43.489Z,7.93
2023-04-12T03:31:11.057Z,7.83
2023-04-12T03:33:39.066Z,7.67
2023-04-12T03:36:07.505Z,7.68
2023-04-12T03:38:34.832Z,7.67
2023-04-12T03:41:02.407Z,7.69
2023-04-12T03:43:35.959Z,7.66
2023-04-12T03:46:07.029Z,7.67
2023-04-12T03:48:34.992Z,7.60
2023-04-12T03:51:07.868Z,7.56
2023-04-12T03:53:35.445Z,7.63
2023-04-12T03:56:03.044Z,7.66
2023-04-12T03:58:30.468Z,7.67
2023-04-12T04:00:58.276Z,7.62
2023-04-12T04:03:27.208Z,7.69
2023-04-12T04:05:55.907Z,7.73
2023-04-12T04:08:23.211Z,7.73
2023-04-12T04:10:50.921Z,7.81
2023-04-12T04:13:18.166Z,7.75
2023-04-12T04:15:46.192Z,7.72
2023-04-12T04:18:13.432Z,7.67
2023-04-12T04:20:41.564Z,7.72
2023-04-12T04:23:10.365Z,7.74
2023-04-12T04:25:39.434Z,7.76
2023-04-12T04:28:07.971Z,7.69
2023-04-12T04:30:39.172Z,7.69
2023-04-12T04:33:07.328Z,7.77
2023-04-12T04:35:34.996Z,7.86
2023-04-12T04:38:02.218Z,7.87
2023-04-12T04:40:29.927Z,7.88
2023-04-12T04:42:57.975Z,7.95
2023-04-12T04:45:26.782Z,7.99
2023-04-12T04:47:55.402Z,7.87
2023-04-12T04:50:25.184Z,8.02
2023-04-12T04:52:52.666Z,8.07
2023-04-12T04:55:24.955Z,8.11
2023-04-12T04:57:52.265Z,8.14
2023-04-12T05:00:21.633Z,8.18
2023-04-12T05:02:49.045Z,8.24
2023-04-12T05:05:17.308Z,8.14
2023-04-12T05:07:44.668Z,8.08
2023-04-12T05:10:12.437Z,8.01
2023-04-12T05:12:39.942Z,7.95
2023-04-12T05:15:11.462Z,8.08
2023-04-12T05:17:39.233Z,8.22
2023-04-12T05:20:08.160Z,8.19
2023-04-12T05:22:36.178Z,8.17
2023-04-12T05:25:04.047Z,8.08
2023-04-12T05:27:31.565Z,8.21
2023-04-12T05:29:59.266Z,8.28
2023-04-12T05:32:26.865Z,8.15
2023-04-12T05:34:54.500Z,8.18
2023-04-12T05:37:21.823Z,8.36
2023-04-12T05:39:49.448Z,8.49
2023-04-12T05:42:16.823Z,8.60
2023-04-12T05:44:46.501Z,8.65
2023-04-12T05:47:15.101Z,8.57
2023-04-12T05:49:42.766Z,8.62
2023-04-12T05:52:10.187Z,8.61
2023-04-12T05:54:37.790Z,8.77
2023-04-12T05:57:05.126Z,8.89
2023-04-12T05:59:32.720Z,8.95
2023-04-12T06:02:00.961Z,9.38
2023-04-12T06:04:42.103Z,9.44
2023-04-12T06:07:19.025Z,9.98
2023-04-12T06:09:47.417Z,10.28
2023-04-12T06:12:14.848Z,10.40
2023-04-12T06:14:42.776Z,10.45
2023-04-12T06:17:10.103Z,10.78
2023-04-12T06:19:37.748Z,10.68
2023-04-12T06:22:05.001Z,10.58
2023-04-12T06:24:32.724Z,10.61
2023-04-12T06:26:59.915Z,10.46
2023-04-12T06:29:27.562Z,10.48
2023-04-12T06:31:54.855Z,10.74
2023-04-12T06:34:22.483Z,10.72
2023-04-12T06:36:49.866Z,10.94
2023-04-12T06:39:17.689Z,11.19
2023-04-12T06:41:47.481Z,11.17
2023-04-12T06:44:15.076Z,11.07
2023-04-12T06:46:42.691Z,11.63
2023-04-12T06:49:10.736Z,12.44
2023-04-12T06:51:37.954Z,12.87
2023-04-12T06:54:06.133Z,13.54
2023-04-12T06:56:33.588Z,13.85
2023-04-12T06:59:01.420Z,14.95
2023-04-12T07:01:28.766Z,16.94
2023-04-12T07:03:56.662Z,18.15
2023-04-12T07:06:25.998Z,20.11
2023-04-12T07:08:54.515Z,19.43
2023-04-12T07:11:23.251Z,18.36
2023-04-12T07:13:51.830Z,19.54
2023-04-12T07:16:19.472Z,17.94
2023-04-12T07:18:47.701Z,16.89
2023-04-12T07:21:17.556Z,21.71
2023-04-12T07:23:46.674Z,22.34
2023-04-12T07:26:14.059Z,19.47
2023-04-12T07:28:41.664Z,18.06
2023-04-12T07:31:09.278Z,16.93
2023-04-12T07:33:39.409Z,18.79
2023-04-12T07:36:08.496Z,22.91
2023-04-12T07:38:36.268Z,19.99
2023-04-12T07:41:03.783Z,19.22
2023-04-12T07:43:31.451Z,25.32
2023-04-12T07:45:59.445Z,26.28
2023-04-12T07:48:27.211Z,28.60
2023-04-12T07:50:54.540Z,24.43
2023-04-12T07:53:29.654Z,21.99
2023-04-12T07:55:57.230Z,20.04
2023-04-12T07:58:25.532Z,19.45
2023-04-12T08:00:54.164Z,23.49
2023-04-12T08:03:21.991Z,23.76
2023-04-12T08:05:53.613Z,22.22
2023-04-12T08:08:22.812Z,20.99
2023-04-12T08:10:52.100Z,20.92
2023-04-12T08:13:20.379Z,28.93
2023-04-12T08:15:48.252Z,35.01
2023-04-12T08:18:16.210Z,39.53
2023-04-12T08:20:44.361Z,38.55
2023-04-12T08:23:12.530Z,32.55
2023-04-12T08:25:40.167Z,27.99
2023-04-12T08:28:10.984Z,25.65
2023-04-12T08:30:38.462Z,23.32
2023-04-12T08:33:06.208Z,22.05
2023-04-12T08:35:33.983Z,20.98
2023-04-12T08:38:07.507Z,20.66
2023-04-12T08:40:35.856Z,20.41
2023-04-12T08:43:12.564Z,20.54
2023-04-12T08:45:40.021Z,19.95
2023-04-12T08:48:07.836Z,19.07
2023-04-12T08:50:35.199Z,18.64
2023-04-12T08:53:03.856Z,18.43
2023-04-12T08:55:31.221Z,18.46
2023-04-12T08:58:00.225Z,18.12
2023-04-12T09:00:27.902Z,20.05
2023-04-12T09:02:55.842Z,27.71
2023-04-12T09:05:30.414Z,28.47
2023-04-12T09:07:59.052Z,33.71
2023-04-12T09:10:37.042Z,30.10
2023-04-12T09:13:06.499Z,31.55
2023-04-12T09:15:34.963Z,36.30
2023-04-12T09:18:17.136Z,32.82
2023-04-12T09:20:44.814Z,33.87
2023-04-12T09:23:21.930Z,31.85
2023-04-12T09:25:52.829Z,28.59
2023-04-12T09:28:26.751Z,27.36
2023-04-12T09:30:56.325Z,33.42
2023-04-12T09:33:39.218Z,32.41
2023-04-12T09:36:14.451Z,39.23
2023-04-12T09:39:04.533Z,46.94
2023-04-12T09:41:32.208Z,49.55
2023-04-12T09:44:01.717Z,53.03
2023-04-12T09:46:29.195Z,50.05
2023-04-12T09:49:03.296Z,43.01
2023-04-12T09:51:36.507Z,50.50
2023-04-12T09:54:06.968Z,53.89
2023-04-12T09:56:36.766Z,50.40
2023-04-12T09:59:07.275Z,42.28
2023-04-12T10:01:42.386Z,36.89
2023-04-12T10:04:10.540Z,32.60
2023-04-12T10:06:38.065Z,29.18
2023-04-12T10:09:06.962Z,27.27
2023-04-12T10:11:34.882Z,26.86
2023-04-12T10:14:03.562Z,34.14
2023-04-12T10:16:34.145Z,29.92
2023-04-12T10:19:04.389Z,27.81
2023-04-12T10:21:32.120Z,26.50
2023-04-12T10:24:01.082Z,29.05
2023-04-12T10:26:28.660Z,35.69
2023-04-12T10:29:26.222Z,45.87
2023-04-12T10:31:59.440Z,49.84
2023-04-12T10:34:31.572Z,54.50
2023-04-12T10:37:01.298Z,58.52
2023-04-12T10:39:44.493Z,59.28
2023-04-12T10:42:20.618Z,52.43
2023-04-12T10:44:49.040Z,55.57
2023-04-12T10:47:17.435Z,49.12
2023-04-12T10:50:26.738Z,43.46
2023-04-12T10:53:18.343Z,45.12
2023-04-12T10:55:46.160Z,37.59
2023-04-12T10:58:48.874Z,34.25
2023-04-12T11:01:18.818Z,33.69
2023-04-12T11:04:16.865Z,33.11
2023-04-12T11:06:54.932Z,31.44
2023-04-12T11:09:25.978Z,33.96
2023-04-12T11:12:17.248Z,30.64
2023-04-12T11:14:52.048Z,29.11
2023-04-12T11:17:23.240Z,28.15
2023-04-12T11:20:02.336Z,26.61
2023-04-12T11:22:33.851Z,25.59
2023-04-12T11:25:03.537Z,24.90
2023-04-12T11:27:32.362Z,24.45
2023-04-12T11:30:01.614Z,24.17
2023-04-12T11:32:31.026Z,24.15
2023-04-12T11:34:59.401Z,23.93
2023-04-12T11:37:27.441Z,23.88
2023-04-12T11:39:58.607Z,23.67
2023-04-12T11:42:29.415Z,23.43
2023-04-12T11:45:00.520Z,23.37
2023-04-12T11:47:30.987Z,23.54
2023-04-12T11:49:59.530Z,23.73
2023-04-12T11:52:32.708Z,23.91
2023-04-12T11:55:07.013Z,24.02
2023-04-12T11:57:35.595Z,23.92
2023-04-12T12:00:06.635Z,23.76
2023-04-12T12:02:43.728Z,24.15
2023-04-12T12:05:13.892Z,26.54
2023-04-12T12:07:42.040Z,26.58
2023-04-12T12:10:10.576Z,26.25
2023-04-12T12:12:38.313Z,26.42
2023-04-12T12:15:06.472Z,27.09
2023-04-12T12:17:40.707Z,27.99
2023-04-12T12:20:20.561Z,28.85
2023-04-12T12:22:49.247Z,27.70
2023-04-12T12:25:19.467Z,26.97
2023-04-12T12:27:51.372Z,27.31
2023-04-12T12:30:22.174Z,27.48
2023-04-12T12:32:54.538Z,26.99
2023-04-12T12:35:21.862Z,26.97
2023-04-12T12:37:52.683Z,26.42
2023-04-12T12:40:32.563Z,26.02
2023-04-12T12:43:00.899Z,25.82
2023-04-12T12:45:31.590Z,25.86
2023-04-12T12:48:05.005Z,25.94
2023-04-12T12:50:35.045Z,25.59
2023-04-12T12:53:04.128Z,25.85
2023-04-12T12:55:31.923Z,25.14
2023-04-12T13:00:30.514Z,26.24
2023-04-12T13:02:58.966Z,26.20
2023-04-12T13:05:26.665Z,26.08
2023-04-12T13:07:54.273Z,26.17
2023-04-12T13:10:21.694Z,25.55
2023-04-12T13:12:49.376Z,25.75
2023-04-12T13:15:23.132Z,25.54
2023-04-12T13:17:53.600Z,24.96
2023-04-12T13:20:24.361Z,24.43
2023-04-12T13:22:52.296Z,24.28
2023-04-12T13:25:20.977Z,24.47
2023-04-12T13:27:50.370Z,24.86
2023-04-12T13:30:19.926Z,24.88
2023-04-12T13:32:47.598Z,24.61
2023-04-12T13:35:14.960Z,24.72
2023-04-12T13:37:42.633Z,24.55
2023-04-12T13:40:10.430Z,24.72
2023-04-12T13:42:38.070Z,24.66
2023-04-12T13:45:07.114Z,24.77
2023-04-12T13:47:35.497Z,24.95
2023-04-12T13:50:02.931Z,25.39
2023-04-12T13:52:30.540Z,25.79
2023-04-12T13:54:59.707Z,26.14
2023-04-12T13:57:27.290Z,25.92
2023-04-12T13:59:54.597Z,26.48
2023-04-12T14:02:22.027Z,26.81
2023-04-12T14:04:55.238Z,26.58
2023-04-12T14:07:29.549Z,26.74
2023-04-12T14:09:57.898Z,26.41
2023-04-12T14:12:25.139Z,26.20
2023-04-12T14:14:52.806Z,25.92
2023-04-12T14:17:20.142Z,26.04
2023-04-12T14:19:47.829Z,25.91
2023-04-12T14:22:15.026Z,25.72
2023-04-12T14:24:42.600Z,25.25
2023-04-12T14:27:09.935Z,24.89
2023-04-12T14:29:39.628Z,24.06
2023-04-12T14:32:06.829Z,23.86
2023-04-12T14:34:34.542Z,23.42
2023-04-12T14:37:01.887Z,22.98
2023-04-12T14:39:30.879Z,22.45
2023-04-12T14:41:58.184Z,21.55
2023-04-12T14:44:26.461Z,20.94
2023-04-12T14:46:53.806Z,20.66
2023-04-12T14:49:21.431Z,20.32
2023-04-12T14:51:48.654Z,20.10
2023-04-12T14:54:16.311Z,19.85
2023-04-12T14:56:51.471Z,19.61
2023-04-12T14:59:20.263Z,19.37
2023-04-12T15:01:47.648Z,19.01
2023-04-12T15:04:15.449Z,18.66
2023-04-12T15:06:43.830Z,18.42
2023-04-12T15:09:13.598Z,18.40
2023-04-12T15:11:46.324Z,18.38
2023-04-12T15:14:20.961Z,18.22
2023-04-12T15:16:51.874Z,18.04
2023-04-12T15:19:23.106Z,17.86
2023-04-12T15:21:55.521Z,17.65
2023-04-12T15:24:25.128Z,17.58
2023-04-12T15:26:53.298Z,17.43
2023-04-12T15:29:26.863Z,17.41
2023-04-12T15:31:56.714Z,17.45
2023-04-12T15:34:25.326Z,17.58
2023-04-12T15:36:53.016Z,17.73
2023-04-12T15:39:21.293Z,17.64
2023-04-12T15:41:48.888Z,17.75
2023-04-12T15:44:16.814Z,17.78
2023-04-12T15:46:56.053Z,17.81
2023-04-12T15:49:32.075Z,17.68
2023-04-12T15:52:00.833Z,17.69
2023-04-12T15:54:28.503Z,17.67
2023-04-12T15:56:55.863Z,17.59
2023-04-12T15:59:24.104Z,17.52
2023-04-12T16:01:52.349Z,17.55
2023-04-12T16:04:20.732Z,17.55
2023-04-12T16:06:48.212Z,17.53
2023-04-12T16:09:16.857Z,17.31
2023-04-12T16:11:46.538Z,17.19
2023-04-12T16:14:14.758Z,17.06
2023-04-12T16:16:42.166Z,17.06
2023-04-12T16:19:09.961Z,17.00
2023-04-12T16:21:40.560Z,16.84
2023-04-12T16:24:10.275Z,16.82
2023-04-12T16:26:39.262Z,16.65
2023-04-12T16:29:06.868Z,16.69
2023-04-12T16:31:34.254Z,16.76
2023-04-12T16:34:02.180Z,16.56
2023-04-12T16:36:31.480Z,16.49
2023-04-12T16:39:01.217Z,16.46
2023-04-12T16:41:28.587Z,16.44
2023-04-12T16:44:01.688Z,16.42
2023-04-12T16:46:29.083Z,16.41
2023-04-12T16:48:59.140Z,16.38
2023-04-12T16:51:27.280Z,16.35
2023-04-12T16:54:04.849Z,16.33
2023-04-12T16:56:32.339Z,16.31
2023-04-12T16:59:00.187Z,16.23
2023-04-12T17:01:27.511Z,16.13
2023-04-12T17:03:55.226Z,16.01
2023-04-12T17:06:22.638Z,15.86
2023-04-12T17:08:50.257Z,15.74
2023-04-12T17:11:17.544Z,15.64
2023-04-12T17:13:46.442Z,15.38
2023-04-12T17:16:16.330Z,15.25
2023-04-12T17:18:44.206Z,15.07
2023-04-12T17:21:11.879Z,14.94
2023-04-12T17:23:39.599Z,14.87
2023-04-12T17:26:08.433Z,14.74
2023-04-12T17:28:38.948Z,14.55
2023-04-12T17:31:08.994Z,14.48
2023-04-12T17:33:37.818Z,14.46
2023-04-12T17:36:11.347Z,14.39
2023-04-12T17:38:39.331Z,14.33
2023-04-12T17:41:09.366Z,14.30
2023-04-12T17:43:37.024Z,14.17
2023-04-12T17:46:05.830Z,14.07
2023-04-12T17:48:33.488Z,13.99
2023-04-12T17:51:02.499Z,13.91
2023-04-12T17:53:30.139Z,13.84
2023-04-12T17:55:57.674Z,13.74
2023-04-12T17:58:25.203Z,13.72
2023-04-12T18:00:52.701Z,13.56
2023-04-12T18:03:20.712Z,13.44
2023-04-12T18:05:48.226Z,13.35
2023-04-12T18:08:17.121Z,13.21
2023-04-12T18:10:45.553Z,13.05
2023-04-12T18:13:13.168Z,12.93
2023-04-12T18:15:40.521Z,12.92
2023-04-12T18:18:08.220Z,12.93
2023-04-12T18:20:35.702Z,12.88
2023-04-12T18:23:03.420Z,12.83
2023-04-12T18:25:31.049Z,12.78
2023-04-12T18:27:59.166Z,12.72
2023-04-12T18:30:26.531Z,12.67
2023-04-12T18:32:54.237Z,12.61
2023-04-12T18:35:21.638Z,12.58
2023-04-12T18:37:49.232Z,12.52
2023-04-12T18:40:16.807Z,12.41
2023-04-12T18:42:46.135Z,12.29
2023-04-12T18:45:13.471Z,12.22
2023-04-12T18:47:42.218Z,12.13
2023-04-12T18:50:10.182Z,12.09
2023-04-12T18:52:38.845Z,12.09
2023-04-12T18:55:07.247Z,12.04
2023-04-12T18:57:34.858Z,11.98
2023-04-12T19:00:05.620Z,11.91
2023-04-12T19:02:34.739Z,11.92
2023-04-12T19:05:03.163Z,11.82
2023-04-12T19:07:31.142Z,11.75
2023-04-12T19:09:58.437Z,11.72
2023-04-12T19:12:26.250Z,11.62
2023-04-12T19:14:53.617Z,11.54
2023-04-12T19:17:27.815Z,11.56
2023-04-12T19:19:56.056Z,11.50
2023-04-12T19:22:27.482Z,11.49
2023-04-12T19:24:55.065Z,11.42
2023-04-12T19:27:23.222Z,11.38
2023-04-12T19:29:51.786Z,11.30
2023-04-12T19:32:19.635Z,11.29
2023-04-12T19:34:47.805Z,11.26
2023-04-12T19:37:15.385Z,11.16
2023-04-12T19:39:42.679Z,11.13
2023-04-12T19:42:11.075Z,11.12
2023-04-12T19:44:40.279Z,11.03
2023-04-12T19:47:08.168Z,10.98
2023-04-12T19:49:36.974Z,10.95
2023-04-12T19:52:05.783Z,10.91
2023-04-12T19:54:33.631Z,10.92
2023-04-12T19:57:04.615Z,10.91
2023-04-12T19:59:34.444Z,10.88
2023-04-12T20:02:02.103Z,10.77
2023-04-12T20:04:36.435Z,10.78
2023-04-12T20:07:04.914Z,10.78
2023-04-12T20:09:32.420Z,10.71
2023-04-12T20:12:00.060Z,10.66
2023-04-12T20:14:27.427Z,10.66
2023-04-12T20:16:56.966Z,10.64
2023-04-12T20:19:25.557Z,10.61
2023-04-12T20:22:00.480Z,10.60
2023-04-12T20:24:30.146Z,10.53
2023-04-12T20:26:57.876Z,10.47
2023-04-12T20:29:25.244Z,10.41
2023-04-12T20:31:53.748Z,10.27
2023-04-12T20:34:21.169Z,10.25
2023-04-12T20:36:48.769Z,10.24
2023-04-12T20:39:16.421Z,10.20
2023-04-12T20:41:50.047Z,10.15
2023-04-12T20:44:19.957Z,10.16
2023-04-12T20:46:49.097Z,10.14
2023-04-12T20:49:16.742Z,10.09
2023-04-12T20:51:46.832Z,10.12
2023-04-12T20:54:14.436Z,10.09
2023-04-12T20:56:42.106Z,9.99
2023-04-12T20:59:10.536Z,9.83
2023-04-12T21:01:38.211Z,9.72
2023-04-12T21:04:06.777Z,9.67
2023-04-12T21:06:34.670Z,9.68
2023-04-12T21:09:04.384Z,9.61
2023-04-12T21:11:32.364Z,9.55
2023-04-12T21:13:59.692Z,9.55
2023-04-12T21:16:27.364Z,9.57
2023-04-12T21:18:54.699Z,9.57
2023-04-12T21:21:22.655Z,9.50
2023-04-12T21:23:51.595Z,9.51
2023-04-12T21:26:19.153Z,9.50
2023-04-12T21:28:46.510Z,9.44
2023-04-12T21:31:14.168Z,9.34
2023-04-12T21:33:41.827Z,9.30
2023-04-12T21:36:10.294Z,9.29
2023-04-12T21:38:37.600Z,9.31
2023-04-12T21:41:13.009Z,9.23
2023-04-12T21:43:40.877Z,9.27
2023-04-12T21:46:09.089Z,9.11
2023-04-12T21:48:36.977Z,9.15
2023-04-12T21:51:10.836Z,9.16
2023-04-12T21:53:38.083Z,9.17
2023-04-12T21:56:06.606Z,9.06
2023-04-12T21:58:34.240Z,8.97
2023-04-12T22:01:02.643Z,9.00
2023-04-12T22:03:30.039Z,9.02
2023-04-12T22:06:04.267Z,9.03
2023-04-12T22:08:33.208Z,8.97
2023-04-12T22:11:01.490Z,8.91
2023-04-12T22:13:28.899Z,8.93
2023-04-12T22:15:57.906Z,8.89
2023-04-12T22:18:25.250Z,8.80
2023-04-12T22:20:53.042Z,8.79
2023-04-12T22:23:20.293Z,8.73
2023-04-12T22:25:49.619Z,8.73
2023-04-12T22:28:17.185Z,8.70
2023-04-12T22:30:46.864Z,8.67
2023-04-12T22:33:16.006Z,8.70
2023-04-12T22:35:44.140Z,8.67
2023-04-12T22:38:13.928Z,8.70
2023-04-12T22:40:41.429Z,8.73
2023-04-12T22:43:18.130Z,8.77
2023-04-12T22:45:48.391Z,8.77
2023-04-12T22:48:15.979Z,8.76
2023-04-12T22:50:47.063Z,8.76
2023-04-12T22:53:15.894Z,8.70
2023-04-12T22:55:44.021Z,8.61
2023-04-12T22:58:11.391Z,8.64
2023-04-12T23:00:39.471Z,8.62
2023-04-12T23:03:10.907Z,8.57
2023-04-12T23:05:39.093Z,8.56
2023-04-12T23:08:06.428Z,8.61
2023-04-12T23:10:34.324Z,8.59
2023-04-12T23:13:01.556Z,8.47
2023-04-12T23:15:30.611Z,8.50
2023-04-12T23:17:57.821Z,8.51
2023-04-12T23:20:25.443Z,8.54
2023-04-12T23:22:58.161Z,8.47
2023-04-12T23:25:39.762Z,8.49
2023-04-12T23:28:13.255Z,8.40
2023-04-12T23:30:49.674Z,8.40
2023-04-12T23:33:21.654Z,8.44
2023-04-12T23:35:55.987Z,8.42
2023-04-12T23:38:32.321Z,8.39
2023-04-12T23:41:06.367Z,8.42
2023-04-12T23:43:34.973Z,8.43
2023-04-12T23:46:03.557Z,8.46
2023-04-12T23:48:32.834Z,8.46
2023-04-12T23:51:00.755Z,8.46
2023-04-12T23:53:28.184Z,8.49
2023-04-12T23:55:56.142Z,8.50
2023-04-12T23:58:25.537Z,8.50
